KBKL/BKL METAR and TAF weather

Enter ICAO airport designator
Station Type Date Time Source
KBKL METAR 2019/12/14 05:53 UTC NOAA

KBKL 140553Z AUTO 00000KT 8SM OVC100 04/00 A2976 RMK AO2 SLP082 T00390000 10050 20039 56027


Station Type Date Time Source
KBKL Decoded METAR 2019/12/14 05:53 UTC NOAA

CLEVELAND BURKE LAKEFRONT, OH, United States (KBKL) 41-32N 81-40W 184M
Dec 14, 2019 - 12:53 AM EST / 2019.12.14 0553 UTC
Wind: Calm:0
Visibility: 8 mile(s):0
Sky conditions: overcast
Temperature: 39.0 F (3.9 C)
Dew Point: 32.0 F (0.0 C)
Relative Humidity: 75%
Pressure (altimeter): 29.76 in. Hg (1007 hPa)
Pressure tendency: 0.08 inches (2.7 hPa) lower than three hours ago
ob: KBKL 140553Z AUTO 00000KT 8SM OVC100 04/00 A2976 RMK AO2 SLP082 T00390000 10050 20039 56027
cycle: 6

Station Type Date Time Source
KBKL TAF UTC NOAA

Error!

Example: see airport list